Time;durP1;ratioP1;P1;durP2;ratioP2;P2;SDS_P1;SDS_P2;PMS_P1;PMS_P2;Temp;Humidity;BMP_temperature;BMP_pressure;BME280_temperature;BME280_humidity;BME280_pressure;Samples;Min_cycle;Max_cycle;Signal;HPM_P1;HPM_P2
2023/05/11 00:02:11;;;;;;;9.77;7.07;;;;;;;;;;5032169;28;20383;-70
2023/05/11 00:04:37;;;;;;;9.07;7.13;;;;;;;;;;5032238;28;20134;-71
2023/05/11 00:07:04;;;;;;;9.55;7.53;;;;;;;;;;5032069;28;20049;-70
2023/05/11 00:09:30;;;;;;;9.68;7.15;;;;;;;;;;5041343;28;20044;-70
2023/05/11 00:11:56;;;;;;;9.82;7.35;;;;;;;;;;5053307;28;20048;-70
2023/05/11 00:14:22;;;;;;;8.85;6.85;;;;;;;;;;5050033;28;20048;-71
2023/05/11 00:16:48;;;;;;;8.88;7.05;;;;;;;;;;5051470;28;20049;-71
2023/05/11 00:19:14;;;;;;;10.40;8.10;;;;;;;;;;5052982;28;20086;-70
2023/05/11 00:21:40;;;;;;;9.48;7.20;;;;;;;;;;5033027;28;20458;-70
2023/05/11 00:24:06;;;;;;;11.00;7.70;;;;;;;;;;4995780;28;20074;-70
2023/05/11 00:26:32;;;;;;;10.48;7.57;;;;;;;;;;5013127;28;20395;-70
2023/05/11 00:28:58;;;;;;;11.85;7.65;;;;;;;;;;5020335;28;20033;-70
2023/05/11 00:31:25;;;;;;;10.52;7.38;;;;;;;;;;5032809;28;20053;-70
2023/05/11 00:33:53;;;;;;;10.13;7.90;;;;;;;;;;5032562;28;20056;-70
2023/05/11 00:36:19;;;;;;;11.50;7.65;;;;;;;;;;5015045;28;20100;-71
2023/05/11 00:38:45;;;;;;;10.75;7.35;;;;;;;;;;5032181;28;20450;-70
2023/05/11 00:41:12;;;;;;;9.73;7.63;;;;;;;;;;5019209;28;20240;-71
2023/05/11 00:43:38;;;;;;;10.57;7.80;;;;;;;;;;5035199;28;20045;-71
2023/05/11 00:46:04;;;;;;;11.15;7.57;;;;;;;;;;5032002;28;20088;-70
2023/05/11 00:48:31;;;;;;;9.68;7.32;;;;;;;;;;5011779;28;20037;-70
2023/05/11 00:50:59;;;;;;;11.05;7.93;;;;;;;;;;5031428;28;20064;-70
2023/05/11 00:53:25;;;;;;;11.38;7.97;;;;;;;;;;5031427;28;20060;-70
2023/05/11 00:55:51;;;;;;;10.18;7.20;;;;;;;;;;5031998;28;20045;-70
2023/05/11 00:58:17;;;;;;;10.48;8.00;;;;;;;;;;5031101;28;20041;-70
2023/05/11 01:00:43;;;;;;;10.20;7.65;;;;;;;;;;5035487;28;20053;-70
2023/05/11 01:03:11;;;;;;;10.20;7.72;;;;;;;;;;5031297;28;20045;-70
2023/05/11 01:05:43;;;;;;;9.38;7.57;;;;;;;;;;5050983;28;20057;-70
2023/05/11 01:08:15;;;;;;;11.20;8.23;;;;;;;;;;5052259;28;20093;-70
2023/05/11 01:10:44;;;;;;;9.63;7.38;;;;;;;;;;5052405;28;20056;-70
2023/05/11 01:13:21;;;;;;;10.82;7.55;;;;;;;;;;5052507;28;20052;-71
2023/05/11 01:15:47;;;;;;;10.20;7.57;;;;;;;;;;5049880;28;20079;-70
2023/05/11 01:18:16;;;;;;;11.65;8.13;;;;;;;;;;5031196;28;20045;-70
2023/05/11 01:20:44;;;;;;;9.18;7.43;;;;;;;;;;5032068;28;20053;-70
2023/05/11 01:23:16;;;;;;;10.52;8.00;;;;;;;;;;5014840;28;20049;-70
2023/05/11 01:26:01;;;;;;;10.25;7.93;;;;;;;;;;5032390;28;20050;-70
2023/05/11 01:28:46;;;;;;;12.82;8.27;;;;;;;;;;5032029;28;20052;-70
2023/05/11 01:31:12;;;;;;;12.18;8.63;;;;;;;;;;5031720;28;20071;-70
2023/05/11 01:33:40;;;;;;;10.98;8.23;;;;;;;;;;5031867;28;20482;-70
2023/05/11 01:36:09;;;;;;;11.30;8.15;;;;;;;;;;5014092;28;20057;-70
2023/05/11 01:38:38;;;;;;;11.20;8.23;;;;;;;;;;5031359;28;20762;-70
2023/05/11 01:41:08;;;;;;;12.18;8.73;;;;;;;;;;5031890;28;20397;-70
2023/05/11 01:43:35;;;;;;;11.40;8.45;;;;;;;;;;5032023;28;20099;-70
2023/05/11 01:46:02;;;;;;;13.35;9.00;;;;;;;;;;5031306;28;20046;-70
2023/05/11 01:48:30;;;;;;;12.05;8.70;;;;;;;;;;5032199;28;20119;-70
2023/05/11 01:51:00;;;;;;;12.50;8.63;;;;;;;;;;5030344;28;20107;-70
2023/05/11 01:53:27;;;;;;;12.15;8.77;;;;;;;;;;5034582;28;20475;-70
2023/05/11 01:55:53;;;;;;;12.70;9.52;;;;;;;;;;5051747;28;20060;-70
2023/05/11 01:58:21;;;;;;;13.70;9.30;;;;;;;;;;5041634;28;20099;-69
2023/05/11 02:00:47;;;;;;;12.48;8.90;;;;;;;;;;5030735;28;20076;-70
2023/05/11 02:03:15;;;;;;;23.75;9.10;;;;;;;;;;5029720;28;20049;-70
2023/05/11 02:05:42;;;;;;;12.70;8.82;;;;;;;;;;5035284;28;20098;-70
2023/05/11 02:08:09;;;;;;;13.20;9.10;;;;;;;;;;5035894;28;20076;-70
2023/05/11 02:10:36;;;;;;;11.50;8.80;;;;;;;;;;5046219;28;20048;-70
2023/05/11 02:13:04;;;;;;;11.57;8.98;;;;;;;;;;5055474;28;20504;-70
2023/05/11 02:15:30;;;;;;;13.07;9.23;;;;;;;;;;5037388;28;20053;-70
2023/05/11 02:17:56;;;;;;;11.85;8.23;;;;;;;;;;5055516;28;20146;-70
2023/05/11 02:20:23;;;;;;;11.68;8.70;;;;;;;;;;5054901;28;20520;-70
2023/05/11 02:22:50;;;;;;;12.25;8.43;;;;;;;;;;5054084;28;20041;-70
2023/05/11 02:25:16;;;;;;;10.85;7.65;;;;;;;;;;5055173;28;20052;-71
2023/05/11 02:27:42;;;;;;;9.73;7.28;;;;;;;;;;5053821;28;20076;-70
2023/05/11 02:30:09;;;;;;;10.05;7.30;;;;;;;;;;5039376;28;20053;-70
2023/05/11 02:32:40;;;;;;;9.27;6.80;;;;;;;;;;5033955;28;20363;-70
2023/05/11 02:35:09;;;;;;;9.13;7.05;;;;;;;;;;5033324;28;20045;-70
2023/05/11 02:37:38;;;;;;;9.77;7.00;;;;;;;;;;5035091;28;20103;-70
2023/05/11 02:40:08;;;;;;;9.07;7.07;;;;;;;;;;5016735;28;20482;-70
2023/05/11 02:42:37;;;;;;;8.85;6.82;;;;;;;;;;5034526;28;20053;-70
2023/05/11 02:45:08;;;;;;;8.45;6.68;;;;;;;;;;5033918;28;20498;-70
2023/05/11 02:47:53;;;;;;;9.32;7.18;;;;;;;;;;5017043;28;20132;-70
2023/05/11 02:50:21;;;;;;;11.07;7.63;;;;;;;;;;5034243;28;20064;-70
2023/05/11 02:52:49;;;;;;;11.60;8.25;;;;;;;;;;5034350;28;20296;-70
2023/05/11 02:55:16;;;;;;;11.63;8.65;;;;;;;;;;5016921;28;20049;-70
2023/05/11 02:57:42;;;;;;;12.80;8.20;;;;;;;;;;5034321;28;20482;-71
2023/05/11 03:00:09;;;;;;;10.27;7.57;;;;;;;;;;5016213;28;20128;-71
2023/05/11 03:02:35;;;;;;;13.48;8.45;;;;;;;;;;5033717;28;20053;-70
2023/05/11 03:05:01;;;;;;;13.40;8.57;;;;;;;;;;5034152;28;20382;-71
2023/05/11 03:07:28;;;;;;;12.43;8.32;;;;;;;;;;5034211;28;20042;-70
2023/05/11 03:09:54;;;;;;;11.07;8.35;;;;;;;;;;5034063;28;20045;-70
2023/05/11 03:12:20;;;;;;;10.30;7.80;;;;;;;;;;5034026;28;20045;-70
2023/05/11 03:14:47;;;;;;;9.95;7.43;;;;;;;;;;5033749;28;20095;-70
2023/05/11 03:17:14;;;;;;;9.57;7.35;;;;;;;;;;5033172;28;20045;-70
2023/05/11 03:19:40;;;;;;;10.35;7.07;;;;;;;;;;5033742;28;20045;-70
2023/05/11 03:22:07;;;;;;;9.90;7.40;;;;;;;;;;5033697;28;20072;-70
2023/05/11 03:24:33;;;;;;;9.63;7.03;;;;;;;;;;5034246;28;20363;-71
2023/05/11 03:26:59;;;;;;;11.02;8.10;;;;;;;;;;5033338;28;20041;-70
2023/05/11 03:29:26;;;;;;;11.23;8.18;;;;;;;;;;5015784;28;20038;-71
2023/05/11 03:31:53;;;;;;;15.07;8.73;;;;;;;;;;5033552;28;20136;-70
2023/05/11 03:34:19;;;;;;;13.73;9.60;;;;;;;;;;5033420;28;20140;-71
2023/05/11 03:36:47;;;;;;;14.85;9.55;;;;;;;;;;5031294;28;20048;-70
2023/05/11 03:39:14;;;;;;;16.88;9.18;;;;;;;;;;5033910;28;20091;-70
2023/05/11 03:41:40;;;;;;;13.95;9.93;;;;;;;;;;5033142;28;20060;-70
2023/05/11 03:44:08;;;;;;;14.07;9.90;;;;;;;;;;5033657;28;20407;-70
2023/05/11 03:46:35;;;;;;;14.98;10.35;;;;;;;;;;5032303;28;20045;-70
2023/05/11 03:49:02;;;;;;;15.68;10.52;;;;;;;;;;5032828;28;20045;-70
2023/05/11 03:51:30;;;;;;;17.67;11.32;;;;;;;;;;5033224;28;20041;-70
2023/05/11 03:53:56;;;;;;;21.45;12.30;;;;;;;;;;5033204;28;20053;-70
2023/05/11 03:56:22;;;;;;;33.83;13.90;;;;;;;;;;5050468;28;20041;-70
2023/05/11 03:58:49;;;;;;;22.38;13.38;;;;;;;;;;5056235;28;20045;-70
2023/05/11 04:01:15;;;;;;;30.52;16.02;;;;;;;;;;5033472;28;20046;-71
2023/05/11 04:03:48;;;;;;;33.10;16.50;;;;;;;;;;5031890;28;20059;-70
2023/05/11 04:06:15;;;;;;;41.22;17.95;;;;;;;;;;5015869;28;20141;-70
2023/05/11 04:08:41;;;;;;;37.05;16.83;;;;;;;;;;5033320;28;20052;-70
2023/05/11 04:11:07;;;;;;;36.08;18.10;;;;;;;;;;5034792;28;20049;-70
2023/05/11 04:13:33;;;;;;;42.13;19.10;;;;;;;;;;5052146;28;20126;-70
2023/05/11 04:15:59;;;;;;;49.05;20.80;;;;;;;;;;5052944;28;20041;-70
2023/05/11 04:18:25;;;;;;;42.90;19.73;;;;;;;;;;5053156;28;20049;-70
2023/05/11 04:20:51;;;;;;;48.13;20.40;;;;;;;;;;5032027;28;20042;-70
2023/05/11 04:23:17;;;;;;;49.38;20.30;;;;;;;;;;5032965;28;20037;-70
2023/05/11 04:25:43;;;;;;;53.92;20.67;;;;;;;;;;5032796;28;20052;-70
2023/05/11 04:28:09;;;;;;;52.60;20.55;;;;;;;;;;5032802;28;20052;-71
2023/05/11 04:30:35;;;;;;;46.80;19.98;;;;;;;;;;5030995;28;20547;-70
2023/05/11 04:33:02;;;;;;;44.08;19.42;;;;;;;;;;5015089;28;20080;-70
2023/05/11 04:35:28;;;;;;;47.08;19.83;;;;;;;;;;5032426;28;20048;-70
2023/05/11 04:37:54;;;;;;;37.50;17.55;;;;;;;;;;5032673;28;20060;-70
2023/05/11 04:40:20;;;;;;;40.28;18.25;;;;;;;;;;5032484;28;20059;-70
2023/05/11 04:42:46;;;;;;;33.33;16.65;;;;;;;;;;5032869;28;20041;-71
2023/05/11 04:45:12;;;;;;;35.13;17.00;;;;;;;;;;5032273;28;20033;-71
2023/05/11 04:47:38;;;;;;;30.55;15.90;;;;;;;;;;5014868;28;20068;-71
2023/05/11 04:50:04;;;;;;;32.85;15.73;;;;;;;;;;5032158;28;20064;-69
2023/05/11 04:52:30;;;;;;;29.83;16.08;;;;;;;;;;5032146;28;20095;-69
2023/05/11 04:54:56;;;;;;;29.50;15.63;;;;;;;;;;5030385;28;20045;-69
2023/05/11 04:57:22;;;;;;;25.50;14.43;;;;;;;;;;5030525;28;20115;-69
2023/05/11 04:59:48;;;;;;;28.48;13.98;;;;;;;;;;5032185;28;20101;-69
2023/05/11 05:02:14;;;;;;;28.25;14.55;;;;;;;;;;5014282;28;20140;-69
2023/05/11 05:04:40;;;;;;;23.30;13.45;;;;;;;;;;5014620;28;20054;-69
2023/05/11 05:07:06;;;;;;;24.15;13.95;;;;;;;;;;5032084;28;20132;-69
2023/05/11 05:09:33;;;;;;;24.70;13.40;;;;;;;;;;5032131;28;20049;-69
2023/05/11 05:11:59;;;;;;;25.48;13.25;;;;;;;;;;5013380;28;20054;-69
2023/05/11 05:14:25;;;;;;;19.75;12.32;;;;;;;;;;5031443;28;20079;-70
2023/05/11 05:16:53;;;;;;;20.70;12.80;;;;;;;;;;5031815;28;20080;-70
2023/05/11 05:19:19;;;;;;;20.60;12.48;;;;;;;;;;5031484;28;20042;-70
2023/05/11 05:21:45;;;;;;;26.50;12.93;;;;;;;;;;5032001;28;20056;-69
2023/05/11 05:24:11;;;;;;;20.92;13.00;;;;;;;;;;5032032;28;20041;-70
2023/05/11 05:26:37;;;;;;;21.58;13.63;;;;;;;;;;5031863;28;20049;-70
2023/05/11 05:29:04;;;;;;;25.63;14.98;;;;;;;;;;5032296;28;20171;-69
2023/05/11 05:31:30;;;;;;;24.83;15.00;;;;;;;;;;5031964;28;20049;-70
2023/05/11 05:33:56;;;;;;;25.05;14.02;;;;;;;;;;5032243;28;20071;-69
2023/05/11 05:36:22;;;;;;;25.30;14.30;;;;;;;;;;5030641;28;20131;-70
2023/05/11 05:38:48;;;;;;;27.02;14.77;;;;;;;;;;5014226;28;20448;-69
2023/05/11 05:41:14;;;;;;;28.10;16.00;;;;;;;;;;5034972;28;20529;-69
2023/05/11 05:43:40;;;;;;;28.92;15.90;;;;;;;;;;5017752;28;20103;-69
2023/05/11 05:46:06;;;;;;;30.75;16.52;;;;;;;;;;5035550;28;20069;-70
2023/05/11 05:48:32;;;;;;;27.30;15.43;;;;;;;;;;5035758;28;20564;-70
2023/05/11 05:50:59;;;;;;;26.67;15.73;;;;;;;;;;5033294;28;20047;-69
2023/05/11 05:53:25;;;;;;;28.13;16.15;;;;;;;;;;5035602;28;20045;-69
2023/05/11 05:55:51;;;;;;;25.10;15.25;;;;;;;;;;5017392;28;20096;-70
2023/05/11 05:58:17;;;;;;;22.98;13.32;;;;;;;;;;5017271;28;20053;-70
2023/05/11 06:00:43;;;;;;;19.88;12.43;;;;;;;;;;5034502;28;20478;-70
2023/05/11 06:03:09;;;;;;;17.10;11.43;;;;;;;;;;5033771;28;20136;-69
2023/05/11 06:05:35;;;;;;;16.92;11.00;;;;;;;;;;5034656;28;20046;-69
2023/05/11 06:08:01;;;;;;;17.73;11.68;;;;;;;;;;5035204;28;20505;-69
2023/05/11 06:10:27;;;;;;;16.08;10.55;;;;;;;;;;5034859;28;20073;-69
2023/05/11 06:12:53;;;;;;;13.50;8.77;;;;;;;;;;5033653;28;20048;-69
2023/05/11 06:15:19;;;;;;;15.27;9.35;;;;;;;;;;5034908;28;20077;-69
2023/05/11 06:17:45;;;;;;;13.40;9.00;;;;;;;;;;5033268;28;20218;-71
2023/05/11 06:20:11;;;;;;;13.10;9.10;;;;;;;;;;5033088;28;20505;-70
2023/05/11 06:22:37;;;;;;;13.80;9.25;;;;;;;;;;5032463;28;20187;-70
2023/05/11 06:25:04;;;;;;;14.18;9.18;;;;;;;;;;5034858;28;20091;-70
2023/05/11 06:27:30;;;;;;;13.80;9.15;;;;;;;;;;5035010;28;20042;-75
2023/05/11 06:29:56;;;;;;;14.88;9.18;;;;;;;;;;5033255;28;20049;-74
2023/05/11 06:32:22;;;;;;;15.57;9.40;;;;;;;;;;5035137;28;20099;-75
2023/05/11 06:34:48;;;;;;;14.88;9.10;;;;;;;;;;5017445;28;20045;-74
2023/05/11 06:37:19;;;;;;;17.25;10.10;;;;;;;;;;5034424;28;20402;-76
2023/05/11 06:39:45;;;;;;;18.33;9.98;;;;;;;;;;5030947;28;20045;-76
2023/05/11 06:42:11;;;;;;;16.75;10.25;;;;;;;;;;5033608;28;20131;-76
2023/05/11 06:44:38;;;;;;;17.27;10.15;;;;;;;;;;5017281;28;20176;-75
2023/05/11 06:47:04;;;;;;;17.17;9.75;;;;;;;;;;5034795;28;20060;-75
2023/05/11 06:49:30;;;;;;;17.40;9.35;;;;;;;;;;5033198;28;20124;-75
2023/05/11 06:51:56;;;;;;;18.80;10.00;;;;;;;;;;5034267;28;20045;-75
2023/05/11 06:54:22;;;;;;;20.52;11.32;;;;;;;;;;5034258;28;20100;-75
2023/05/11 06:56:48;;;;;;;18.70;11.35;;;;;;;;;;5016504;28;20072;-75
2023/05/11 06:59:14;;;;;;;19.27;11.35;;;;;;;;;;5034526;28;20041;-75
2023/05/11 07:01:40;;;;;;;21.65;12.02;;;;;;;;;;5034056;28;20049;-75
2023/05/11 07:04:07;;;;;;;20.00;11.48;;;;;;;;;;5034146;28;20136;-75
2023/05/11 07:06:33;;;;;;;19.88;11.18;;;;;;;;;;5034047;28;20077;-75
2023/05/11 07:08:59;;;;;;;19.13;11.35;;;;;;;;;;5037067;28;20056;-75
2023/05/11 07:11:26;;;;;;;20.15;11.88;;;;;;;;;;5036806;28;20077;-74
2023/05/11 07:13:52;;;;;;;19.67;11.57;;;;;;;;;;5036142;28;20045;-74
2023/05/11 07:16:18;;;;;;;16.60;10.75;;;;;;;;;;5032432;28;20401;-74
2023/05/11 07:18:47;;;;;;;16.33;10.50;;;;;;;;;;5043301;28;20041;-75
2023/05/11 07:21:13;;;;;;;16.70;10.70;;;;;;;;;;5053423;28;20596;-75
2023/05/11 07:23:39;;;;;;;17.30;10.95;;;;;;;;;;5032169;28;20045;-74
2023/05/11 07:26:08;;;;;;;16.73;11.05;;;;;;;;;;5033671;28;20068;-75
2023/05/11 07:28:35;;;;;;;14.60;10.02;;;;;;;;;;5015846;28;20060;-75
2023/05/11 07:31:01;;;;;;;16.40;11.07;;;;;;;;;;5032971;28;20132;-75
2023/05/11 07:33:27;;;;;;;14.68;10.20;;;;;;;;;;5015809;28;20215;-74
2023/05/11 07:35:53;;;;;;;17.38;10.57;;;;;;;;;;5029017;28;20045;-74
2023/05/11 07:38:20;;;;;;;16.25;11.52;;;;;;;;;;5031946;28;20051;-75
2023/05/11 07:40:46;;;;;;;17.80;11.00;;;;;;;;;;5032745;28;20084;-74
2023/05/11 07:43:12;;;;;;;17.10;11.20;;;;;;;;;;5033088;28;20099;-75
2023/05/11 07:45:38;;;;;;;16.77;11.13;;;;;;;;;;5015059;28;20033;-75
2023/05/11 07:48:04;;;;;;;14.23;10.55;;;;;;;;;;5031600;28;20099;-74
2023/05/11 07:50:31;;;;;;;18.02;11.20;;;;;;;;;;5032842;28;20103;-75
2023/05/11 07:52:57;;;;;;;16.23;11.40;;;;;;;;;;5022233;28;20482;-76
2023/05/11 07:55:28;;;;;;;16.38;10.60;;;;;;;;;;5049594;28;20183;-76
2023/05/11 07:57:54;;;;;;;15.85;11.68;;;;;;;;;;5035765;28;20061;-74
2023/05/11 08:00:21;;;;;;;16.40;11.48;;;;;;;;;;5032971;28;20113;-75
2023/05/11 08:02:47;;;;;;;16.42;11.02;;;;;;;;;;5032377;28;20103;-76
2023/05/11 08:05:13;;;;;;;14.45;9.93;;;;;;;;;;5032907;28;20501;-75
2023/05/11 08:07:39;;;;;;;16.15;10.52;;;;;;;;;;5032926;28;20037;-75
2023/05/11 08:10:05;;;;;;;15.68;10.88;;;;;;;;;;5032634;28;20355;-75
2023/05/11 08:12:32;;;;;;;14.77;10.18;;;;;;;;;;5032278;28;20057;-76
2023/05/11 08:14:58;;;;;;;14.07;10.30;;;;;;;;;;5033105;28;20041;-75
2023/05/11 08:17:24;;;;;;;12.45;8.82;;;;;;;;;;5031212;28;20049;-75
2023/05/11 08:19:50;;;;;;;16.17;9.68;;;;;;;;;;5014994;28;20064;-75
2023/05/11 08:22:17;;;;;;;12.25;8.73;;;;;;;;;;5032253;28;20402;-74
2023/05/11 08:24:43;;;;;;;12.63;8.98;;;;;;;;;;5014607;28;20080;-75
2023/05/11 08:27:09;;;;;;;12.55;8.65;;;;;;;;;;5032712;28;20053;-75
2023/05/11 08:29:35;;;;;;;13.70;8.52;;;;;;;;;;5031327;28;20071;-76
2023/05/11 08:32:02;;;;;;;13.93;9.30;;;;;;;;;;5030051;28;20096;-74
2023/05/11 08:34:28;;;;;;;14.20;9.18;;;;;;;;;;5027825;28;20104;-75
2023/05/11 08:36:54;;;;;;;12.80;9.23;;;;;;;;;;5014593;28;20086;-76
2023/05/11 08:39:21;;;;;;;16.17;8.98;;;;;;;;;;5014336;28;20103;-74
2023/05/11 08:41:49;;;;;;;13.40;9.30;;;;;;;;;;5031021;28;20131;-74
2023/05/11 08:44:16;;;;;;;13.48;9.60;;;;;;;;;;5030474;28;20048;-74
2023/05/11 08:46:46;;;;;;;13.02;9.45;;;;;;;;;;5030618;28;20095;-75
2023/05/11 08:49:13;;;;;;;15.43;9.80;;;;;;;;;;5031842;28;20045;-76
2023/05/11 08:51:39;;;;;;;14.30;10.00;;;;;;;;;;5032175;28;20549;-76
2023/05/11 08:54:06;;;;;;;14.27;9.75;;;;;;;;;;5030966;28;20045;-76
2023/05/11 08:56:34;;;;;;;12.85;9.13;;;;;;;;;;5030004;28;20064;-75
2023/05/11 08:59:00;;;;;;;15.77;10.05;;;;;;;;;;5032007;28;20041;-75
2023/05/11 09:01:28;;;;;;;15.90;10.18;;;;;;;;;;5030876;28;20133;-75
2023/05/11 09:03:55;;;;;;;14.68;10.10;;;;;;;;;;5031550;28;20405;-76
2023/05/11 09:06:23;;;;;;;15.73;10.07;;;;;;;;;;5031059;28;20433;-76
2023/05/11 09:08:49;;;;;;;14.43;9.20;;;;;;;;;;5031226;28;20041;-77
2023/05/11 09:11:15;;;;;;;13.75;9.10;;;;;;;;;;5030847;28;20045;-75
2023/05/11 09:13:41;;;;;;;13.43;9.57;;;;;;;;;;5030844;28;20041;-75
2023/05/11 09:16:07;;;;;;;13.95;9.00;;;;;;;;;;5034703;28;20140;-75
2023/05/11 09:18:33;;;;;;;11.55;8.43;;;;;;;;;;5034579;28;20084;-75
2023/05/11 09:21:01;;;;;;;11.07;8.20;;;;;;;;;;5014847;28;20144;-75
2023/05/11 09:23:27;;;;;;;11.65;8.85;;;;;;;;;;5024722;28;20379;-74
2023/05/11 09:25:53;;;;;;;13.57;9.70;;;;;;;;;;5005526;28;20037;-75
2023/05/11 09:28:28;;;;;;;11.57;8.18;;;;;;;;;;5023149;28;20046;-77
2023/05/11 09:30:54;;;;;;;10.33;7.90;;;;;;;;;;5033592;28;20084;-74
2023/05/11 09:33:22;;;;;;;10.88;8.10;;;;;;;;;;5031565;28;20065;-71
2023/05/11 09:35:48;;;;;;;10.88;7.75;;;;;;;;;;5031311;28;20128;-72
2023/05/11 09:38:17;;;;;;;10.40;8.02;;;;;;;;;;5031527;28;20492;-72
2023/05/11 09:40:51;;;;;;;10.70;7.82;;;;;;;;;;5030962;28;20068;-72
2023/05/11 09:43:25;;;;;;;11.07;7.68;;;;;;;;;;5031677;28;20045;-71
2023/05/11 09:45:52;;;;;;;11.35;8.48;;;;;;;;;;5031125;28;20057;-71
2023/05/11 09:48:18;;;;;;;10.40;8.15;;;;;;;;;;5030738;28;20051;-71
2023/05/11 09:50:45;;;;;;;11.55;8.15;;;;;;;;;;5032380;28;20396;-72
2023/05/11 09:53:11;;;;;;;11.65;8.40;;;;;;;;;;5050345;28;20041;-72
2023/05/11 09:55:37;;;;;;;11.80;8.70;;;;;;;;;;5042113;28;20042;-72
2023/05/11 09:58:03;;;;;;;11.13;8.90;;;;;;;;;;5034294;28;20094;-72
2023/05/11 10:00:30;;;;;;;10.98;8.15;;;;;;;;;;5033690;28;20076;-73
2023/05/11 10:03:03;;;;;;;11.82;8.35;;;;;;;;;;4977689;28;1120332;-74
2023/05/11 10:05:33;;;;;;;12.23;8.52;;;;;;;;;;5034331;28;20049;-74
2023/05/11 10:08:01;;;;;;;11.35;8.07;;;;;;;;;;5034879;28;20049;-74
2023/05/11 10:10:28;;;;;;;10.68;7.72;;;;;;;;;;5034949;28;20055;-74
2023/05/11 10:12:55;;;;;;;11.27;8.13;;;;;;;;;;5034236;28;20080;-73
2023/05/11 10:15:26;;;;;;;10.07;7.75;;;;;;;;;;5017492;28;20186;-72
2023/05/11 10:17:53;;;;;;;11.98;8.13;;;;;;;;;;5017684;28;20451;-73
2023/05/11 10:20:20;;;;;;;11.25;7.72;;;;;;;;;;5035055;28;20052;-73
2023/05/11 10:22:46;;;;;;;10.48;7.88;;;;;;;;;;5035045;28;20041;-73
2023/05/11 10:25:13;;;;;;;11.20;7.95;;;;;;;;;;5033249;28;20196;-73
2023/05/11 10:27:39;;;;;;;9.10;7.72;;;;;;;;;;5035178;28;20045;-73
2023/05/11 10:30:06;;;;;;;9.80;7.13;;;;;;;;;;5034783;28;20514;-73
2023/05/11 10:32:36;;;;;;;9.82;7.50;;;;;;;;;;5037849;28;20410;-73
2023/05/11 10:35:02;;;;;;;10.70;7.30;;;;;;;;;;5037000;28;20049;-73
2023/05/11 10:37:29;;;;;;;10.23;7.93;;;;;;;;;;5033922;28;20461;-73
2023/05/11 10:39:56;;;;;;;8.98;7.03;;;;;;;;;;5040888;28;20092;-74
2023/05/11 10:42:36;;;;;;;11.25;7.47;;;;;;;;;;5034723;28;20120;-73
2023/05/11 10:45:08;;;;;;;9.00;7.20;;;;;;;;;;5033466;28;20117;-73
2023/05/11 10:47:49;;;;;;;8.88;6.82;;;;;;;;;;5032159;28;20045;-73
2023/05/11 10:50:28;;;;;;;8.50;7.00;;;;;;;;;;5034219;28;20042;-73
2023/05/11 10:52:53;;;;;;;9.10;6.95;;;;;;;;;;5032281;28;20043;-73
2023/05/11 10:55:26;;;;;;;9.68;6.35;;;;;;;;;;5033822;28;20091;-73
2023/05/11 10:58:18;;;;;;;8.00;6.40;;;;;;;;;;5031977;28;20393;-73
2023/05/11 11:01:10;;;;;;;7.80;6.45;;;;;;;;;;5029271;28;20063;-73
2023/05/11 11:03:36;;;;;;;7.65;5.88;;;;;;;;;;5024204;28;20059;-73
2023/05/11 11:06:02;;;;;;;7.63;5.80;;;;;;;;;;5033991;28;20041;-72
2023/05/11 11:08:28;;;;;;;7.00;5.43;;;;;;;;;;5033719;28;20042;-73
2023/05/11 11:10:55;;;;;;;6.43;5.40;;;;;;;;;;5024013;28;20379;-73
2023/05/11 11:13:23;;;;;;;6.63;5.45;;;;;;;;;;5034154;28;20064;-73
2023/05/11 11:15:55;;;;;;;7.45;5.18;;;;;;;;;;5032745;28;20045;-73
2023/05/11 11:18:25;;;;;;;7.57;5.40;;;;;;;;;;5033295;28;20053;-73
2023/05/11 11:20:52;;;;;;;7.13;5.05;;;;;;;;;;5033919;28;20049;-73
2023/05/11 11:23:36;;;;;;;8.75;5.75;;;;;;;;;;5033397;28;20379;-73
2023/05/11 11:26:02;;;;;;;6.70;5.10;;;;;;;;;;5030049;28;20459;-73
2023/05/11 11:28:49;;;;;;;7.20;5.30;;;;;;;;;;5031672;28;20099;-72
2023/05/11 11:31:34;;;;;;;6.57;4.82;;;;;;;;;;5032648;28;20045;-72
2023/05/11 11:34:19;;;;;;;7.18;5.03;;;;;;;;;;5033496;28;20050;-73
2023/05/11 11:36:54;;;;;;;7.57;4.90;;;;;;;;;;5030420;28;20107;-73
2023/05/11 11:39:24;;;;;;;5.22;4.10;;;;;;;;;;5033630;28;20465;-73
2023/05/11 11:42:03;;;;;;;5.25;3.40;;;;;;;;;;5015362;28;20049;-73
2023/05/11 11:44:30;;;;;;;4.53;2.90;;;;;;;;;;5033393;28;20037;-73
2023/05/11 11:47:15;;;;;;;4.30;3.08;;;;;;;;;;5015647;28;20108;-73
2023/05/11 11:49:42;;;;;;;3.80;2.70;;;;;;;;;;5033199;28;20049;-73
2023/05/11 11:52:31;;;;;;;3.75;2.70;;;;;;;;;;5033106;28;20041;-73
2023/05/11 11:55:00;;;;;;;3.70;2.40;;;;;;;;;;5032951;28;20055;-73
2023/05/11 11:57:32;;;;;;;3.50;2.40;;;;;;;;;;5033194;28;20041;-73
2023/05/11 11:59:59;;;;;;;3.63;2.38;;;;;;;;;;5033017;28;20087;-73
2023/05/11 12:02:26;;;;;;;3.95;2.50;;;;;;;;;;5014883;28;20096;-73
2023/05/11 12:05:10;;;;;;;2.63;1.80;;;;;;;;;;5014946;28;20049;-73
2023/05/11 12:07:37;;;;;;;3.28;1.88;;;;;;;;;;5015299;28;20125;-73
2023/05/11 12:10:03;;;;;;;4.85;1.77;;;;;;;;;;5032271;28;20137;-73
2023/05/11 12:12:29;;;;;;;3.33;1.88;;;;;;;;;;5033302;28;20482;-73
2023/05/11 12:14:56;;;;;;;3.10;1.63;;;;;;;;;;5032999;28;20041;-73
2023/05/11 12:17:26;;;;;;;3.47;1.67;;;;;;;;;;5032809;28;20045;-74
2023/05/11 12:19:53;;;;;;;3.63;1.70;;;;;;;;;;5014951;28;20148;-73
2023/05/11 12:22:23;;;;;;;4.30;2.00;;;;;;;;;;5014851;28;20140;-74
2023/05/11 12:24:50;;;;;;;3.17;1.80;;;;;;;;;;5032903;28;20053;-74
2023/05/11 12:27:19;;;;;;;3.53;1.88;;;;;;;;;;5032766;28;20498;-73
2023/05/11 12:29:51;;;;;;;2.55;1.85;;;;;;;;;;5014761;28;20049;-74
2023/05/11 12:32:27;;;;;;;2.65;1.65;;;;;;;;;;5031463;28;20348;-73
2023/05/11 12:34:59;;;;;;;3.53;1.90;;;;;;;;;;5032503;28;20479;-73
2023/05/11 12:37:25;;;;;;;2.85;1.90;;;;;;;;;;5030742;28;20187;-73
2023/05/11 12:39:54;;;;;;;2.60;1.85;;;;;;;;;;5032492;28;20493;-73
2023/05/11 12:42:21;;;;;;;3.20;2.30;;;;;;;;;;5032564;28;20046;-74
2023/05/11 12:44:47;;;;;;;3.90;2.20;;;;;;;;;;5032602;28;20042;-74
2023/05/11 12:47:13;;;;;;;3.72;2.40;;;;;;;;;;5032322;28;20453;-73
2023/05/11 12:49:40;;;;;;;4.07;2.45;;;;;;;;;;5031229;28;20045;-73
2023/05/11 12:52:07;;;;;;;3.72;2.40;;;;;;;;;;5032323;28;20045;-73
2023/05/11 12:54:38;;;;;;;4.32;2.80;;;;;;;;;;5031376;28;20409;-74
2023/05/11 12:57:04;;;;;;;3.63;2.88;;;;;;;;;;5030910;28;20049;-73
2023/05/11 12:59:36;;;;;;;3.97;2.90;;;;;;;;;;5032136;28;20038;-74
2023/05/11 13:02:05;;;;;;;4.35;2.90;;;;;;;;;;5031492;28;20069;-73
2023/05/11 13:04:32;;;;;;;3.95;2.78;;;;;;;;;;5032375;28;20071;-74
2023/05/11 13:06:58;;;;;;;4.35;3.05;;;;;;;;;;5032171;28;20081;-73
2023/05/11 13:09:24;;;;;;;5.57;3.17;;;;;;;;;;5032310;28;20143;-73
2023/05/11 13:12:06;;;;;;;4.97;2.72;;;;;;;;;;5032107;28;20041;-73
2023/05/11 13:14:32;;;;;;;4.70;2.97;;;;;;;;;;5032422;28;20049;-73
2023/05/11 13:16:58;;;;;;;3.92;3.00;;;;;;;;;;5031703;28;20049;-74
2023/05/11 13:19:28;;;;;;;5.50;3.22;;;;;;;;;;5030794;28;20061;-73
2023/05/11 13:21:54;;;;;;;5.90;3.83;;;;;;;;;;5030041;28;20092;-73
2023/05/11 13:24:21;;;;;;;6.35;3.60;;;;;;;;;;5030464;28;20123;-73
2023/05/11 13:26:47;;;;;;;6.88;3.90;;;;;;;;;;5032122;28;20049;-73
2023/05/11 13:29:13;;;;;;;5.95;4.07;;;;;;;;;;5030096;28;20033;-73
2023/05/11 13:31:43;;;;;;;4.75;3.13;;;;;;;;;;5031691;28;20073;-73
2023/05/11 13:34:09;;;;;;;3.70;2.85;;;;;;;;;;5031314;28;20060;-73
2023/05/11 13:36:35;;;;;;;3.83;2.80;;;;;;;;;;5031743;28;20049;-74
2023/05/11 13:39:01;;;;;;;4.18;2.50;;;;;;;;;;5031549;28;20046;-73
2023/05/11 13:41:27;;;;;;;5.07;2.70;;;;;;;;;;5029676;28;20056;-73
2023/05/11 13:43:53;;;;;;;3.83;2.70;;;;;;;;;;5029371;28;20053;-74
2023/05/11 13:46:19;;;;;;;3.58;2.53;;;;;;;;;;5030169;28;20041;-73
2023/05/11 13:48:45;;;;;;;4.25;3.05;;;;;;;;;;5032069;28;20053;-74
2023/05/11 13:51:11;;;;;;;4.43;2.50;;;;;;;;;;5030709;28;20053;-74
2023/05/11 13:53:37;;;;;;;3.40;2.40;;;;;;;;;;5032521;28;20159;-74
2023/05/11 13:56:03;;;;;;;4.32;2.67;;;;;;;;;;5030854;28;20456;-73
2023/05/11 13:58:30;;;;;;;5.07;2.80;;;;;;;;;;5033230;28;20052;-73
2023/05/11 14:00:56;;;;;;;5.05;2.80;;;;;;;;;;5038341;28;20049;-74
2023/05/11 14:03:22;;;;;;;3.80;2.88;;;;;;;;;;5037412;28;20453;-74
2023/05/11 14:05:48;;;;;;;4.32;3.17;;;;;;;;;;5035765;28;20045;-74
2023/05/11 14:08:14;;;;;;;5.05;3.03;;;;;;;;;;5035699;28;20067;-74
2023/05/11 14:10:40;;;;;;;4.40;3.00;;;;;;;;;;5035463;28;20052;-74
2023/05/11 14:13:07;;;;;;;4.57;3.10;;;;;;;;;;5035321;28;20042;-74
2023/05/11 14:15:33;;;;;;;4.68;3.05;;;;;;;;;;5035229;28;20495;-74
2023/05/11 14:18:03;;;;;;;4.82;3.40;;;;;;;;;;5035132;28;20050;-74
2023/05/11 14:20:30;;;;;;;4.03;3.17;;;;;;;;;;5034923;28;20069;-74
2023/05/11 14:22:56;;;;;;;3.97;3.15;;;;;;;;;;5035280;28;20124;-73
2023/05/11 14:25:22;;;;;;;6.30;3.28;;;;;;;;;;5034682;28;20202;-73
2023/05/11 14:27:48;;;;;;;4.47;3.10;;;;;;;;;;5034065;28;20042;-73
2023/05/11 14:30:14;;;;;;;4.15;3.08;;;;;;;;;;5032946;28;20394;-73
2023/05/11 14:32:40;;;;;;;4.18;3.20;;;;;;;;;;5034561;28;20137;-73
2023/05/11 14:35:07;;;;;;;4.30;3.25;;;;;;;;;;5034268;28;20114;-73